x

Southeast Hawaii - 205 Nm Southeast Of Hilo, Hi (51004) Wave Buoy

10:50am - Fri 2nd Dec 2016 All times are HST. -10 hours from GMT.

  • Sig Wave height 11.8ft
  • Swell Direction
  • Peak Period 10s
  • Average Period 7s
  • Wind
    22mph, 29mph gusts
  • Sea Temp 79°f
  • Air Temp 76°f
  • Sea Pressure 1013.7mb
  • Southeast Hawaii - 205 Nm Southeast Of Hilo, Hi
  • Southeast Hawaii - 205 Nm Southeast Of Hilo, Hi

More Historic Weather Station data

Upgrade to MSW Pro to gain access to the past 30 days of data for over 8000 Wavebouys and Weather Stations around the globe.

Join Pro

Comparision Forecast

View Surf forecast
   
Fri 12/02 10:50am 12ft 10s 7s 22 29 mph 1013.7mb 79f 76f
9:50am 11.5ft 11s 7s 22 29 mph 1014.1mb 79f 74f
8:50am 12.5ft 9s 7s 25 31 mph 1014.1mb 79f 76f
7:50am 11.5ft 9s 7s 25 31 mph 1013.7mb 79f 76f
6:50am 11.5ft 9s 7s 25 29 mph 1012.9mb 79f 76f
5:50am 11.5ft 9s 7s 27 36 mph 1012.4mb 79f 75f
4:50am 11ft 10s 7s 29 34 mph 1012.2mb 79f 75f
3:50am 12ft 10s 7s 27 34 mph 1011.9mb 79f 74f
2:50am 12ft 10s 7s 27 34 mph 1012.1mb 79f 75f
1:50am 11ft 10s 7s 27 38 mph 1012.5mb 79f 75f
12:50am 11.5ft 10s 7s 25 29 mph 1013.8mb 78f 74f
Thu 12/01 11:50pm 11ft 10s 7s 18 25 mph 1015mb 79f 71f
10:50pm 11ft 10s 7s 22 27 mph 1014.5mb 79f 75f
9:50pm 10.5ft 10s 7s 25 29 mph 1015.2mb 79f 76f
8:50pm 11ft 10s 7s 22 27 mph 1015.2mb 79f 76f
7:50pm 11ft 10s 7s 22 27 mph 1014.7mb 79f 77f
6:50pm 10.5ft 9s 7s 22 27 mph 1014.3mb 79f 77f
5:50pm 10ft 10s 7s 22 27 mph 1013.9mb 79f 77f
4:50pm 10ft 10s 7s 20 27 mph 1013.2mb 79f 77f
3:50pm 10ft 9s 7s 22 25 mph 1012.5mb 79f 77f
2:50pm 10.5ft 9s 7s 20 25 mph 1012.5mb 79f 78f
1:50pm 10ft 9s 7s 20 25 mph 1013.1mb 79f 77f
12:50pm 10ft 10s 7s 20 25 mph 1013.8mb 79f 77f
11:50am 10ft 9s 7s 22 25 mph 1014.4mb 79f 77f
10:50am 10ft 10s 7s 20 25 mph 1015.2mb 79f 77f
9:50am 9.5ft 9s 7s 22 27 mph 1015.3mb 79f 77f
8:50am 10ft 10s 7s 18 22 mph 1015.3mb 79f 76f
6:50am 9.5ft 9s 7s 22 25 mph 1014mb 79f 77f
5:50am 10.5ft 9s 7s 22 27 mph 1013.8mb 79f 75f
4:50am 10.5ft 9s 7s 22 27 mph 1013.3mb 79f 76f
3:50am 11ft 8s 7s 20 22 mph 1013.7mb 79f 77f
2:50am 10.5ft 8s 7s 20 22 mph 1013.8mb 79f 76f
1:50am 11ft 9s 7s 22 27 mph 1013.8mb 79f 77f
12:50am 10ft 10s 7s 25 31 mph 1014.1mb 79f 76f
Wed 11/30 11:50pm 10ft 8s 7s 25 29 mph 1014.4mb 79f 76f
10:50pm 10.5ft 8s 7s 22 29 mph 1014.7mb 79f 76f
9:50pm 10ft 10s 7s 25 29 mph 1014.7mb 79f 77f
8:50pm 10ft 10s 7s 25 29 mph 1014.7mb 79f 77f
7:50pm 10.5ft 9s 7s 25 29 mph 1014.1mb 79f 77f
6:50pm 10ft 9s 7s 25 29 mph 1013.8mb 79f 76f
5:50pm 10ft 10s 7s 22 27 mph 1013.2mb 79f 76f
4:50pm 10ft 10s 7s 22 27 mph 1013mb 79f 76f
3:50pm 9.5ft 8s 7s 22 29 mph 1012.8mb 79f 76f
2:50pm 9ft 10s 7s 25 29 mph 1012.9mb 79f 76f
1:50pm 9ft 10s 7s 16 20 mph 1013.6mb 79f 74f
12:50pm 9.5ft 7s 7s 20 25 mph 1014.1mb 79f 74f
11:50am 10ft 8s 7s 25 29 mph 1014.8mb 79f 73f
10:50am 10.5ft 10s 7s 25 29 mph 1015.6mb 79f 76f
9:50am 9.5ft 10s 7s 25 29 mph 1016mb 79f 76f
8:50am 9ft 8s 7s 22 27 mph 1015.8mb 79f 76f
7:50am 10ft 11s 7s 22 27 mph 1015.4mb 79f 76f
6:50am 10ft 11s 7s 22 27 mph 1014.8mb 79f 76f
5:50am 9.5ft 9s 7s 22 27 mph 1014.5mb 79f 76f
4:50am 10ft 10s 7s 16 22 mph 1014.4mb 79f 75f
3:50am 10ft 10s 7s 22 27 mph 1014mb 79f 75f
2:50am 10ft 8s 7s 27 36 mph 1013.8mb 79f 75f
1:50am 10ft 8s 7s 20 29 mph 1014.3mb 79f 74f
12:50am 10ft 9s 7s 18 22 mph 1014.6mb 79f 73f
Tue 11/29 11:50pm 10ft 10s 7s 25 31 mph 1014.6mb 79f 74f
10:50pm 10ft 11s 7s 25 29 mph 1015.2mb 79f 75f
9:50pm 10ft 10s 7s 25 29 mph 1015.2mb 79f 76f
8:50pm 9.5ft 11s 7s 25 29 mph 1014.7mb 79f 76f
7:50pm 10ft 11s 7s 22 27 mph 1014.9mb 79f 76f
6:50pm 10ft 11s 7s 25 27 mph 1014.4mb 79f 76f
5:50pm 10.5ft 10s 7s 22 27 mph 1014.1mb 79f 76f
4:50pm 9ft 11s 7s 22 27 mph 1013.5mb 79f 76f
3:50pm 11ft 10s 7s 20 25 mph 1013.5mb 79f 76f
2:50pm 11ft 11s 7s 22 27 mph 1013.1mb 79f 76f
1:50pm 10ft 11s 7s 20 22 mph 1013.6mb 79f 76f
12:50pm 10ft 10s 7s 20 25 mph 1014.2mb 79f 76f
11:50am 11ft 11s 7s 22 25 mph 1015.1mb 79f 76f
10:50am 11ft 10s 7s 22 25 mph 1015.8mb 79f 76f
9:50am 11ft 11s 7s 22 27 mph 1016.2mb 79f 76f
8:50am 11ft 11s 7s 20 25 mph 1016.4mb 79f 76f
7:50am 10.5ft 11s 7s 22 27 mph 1016.2mb 79f 76f
6:50am 10.5ft 10s 7s 22 27 mph 1015.8mb 79f 75f
5:50am 10ft 11s 7s 22 27 mph 1015.3mb 79f 76f
4:50am 11ft 11s 7s 22 29 mph 1015.1mb 79f 76f
3:50am 12ft 11s 8s 22 27 mph 1015mb 79f 76f
2:50am 11ft 11s 7s 22 25 mph 1015.5mb 79f 76f
1:50am 10.5ft 10s 7s 22 27 mph 1016.3mb 79f 76f
12:50am 11ft 10s 7s 22 27 mph 1016.8mb 79f 76f
Mon 11/28 11:50pm 11.5ft 11s 7s 22 29 mph 1016.9mb 79f 76f
10:50pm 11.5ft 11s 7s 22 27 mph 1017mb 79f 76f